Terminal Aerodrome Forecast
Issued by NWS

Home | Current Version | Previous Version | Text Only | Print | Product List | Glossary On
Versions: 1 2 3 4 5 6 7 8 9 10 11 12 13 14 15 16 17 18 19 20 21 22 23 24 25 26 27 28 29 30 31 32 33 34 35 36 37 38 39 40 41 42 43 44 45 46 47 48 49 50
000
FTUS43 KMKX 251133
TAFUES
TAF
KUES 251133Z 2512/2612 00000KT P6SM SCT002 BKN250
      TEMPO 2512/2513 5SM BR
     FM251300 VRB04KT P6SM SCT100 BKN250
     FM251500 12006KT P6SM SCT060 BKN200
     FM251900 13009G15KT P6SM VCTS BKN100CB BKN200
     FM252100 13010G18KT P6SM VCTS SCT050 BKN090CB
      TEMPO 2522/2601 4SM TSRA OVC040CB
     FM260200 16005KT P6SM OVC060 PROB30 2602/2604 4SM TSRA OVC040CB
     FM261000 20004KT 3SM BR BKN015=

USA.gov is the U.S. government's official web portal to all federal, state and local government web resources and services.